ADDS TAF Data INFO
IDs: Format: Raw Decoded Include METARs

Data at: 2339 UTC 18 Feb 2018

Region: TOP
KATL 182332Z 1900/2006 17007KT P6SM VCSH BKN015 BKN025
  FM190300 15006KT 5SM BR OVC009
  FM190700 15007KT 3SM -DZ BR OVC006
  FM191500 15007KT P6SM BKN012
  FM192000 14009KT P6SM BKN030
  FM200100 13006KT P6SM BKN015


KBOS 182321Z 1900/2006 29005KT P6SM FEW250
  FM190600 22003KT P6SM FEW150
  FM191600 20010G23KT P6SM FEW200
  FM191900 20011G23KT P6SM BKN035
  FM200000 20009KT 6SM -SHRA BR OVC020


KBWI 182327Z 1900/2006 VRB03KT P6SM FEW250
  FM191300 17005KT P6SM BKN060
  FM191700 18006KT P6SM OVC025
  FM191900 18006KT 5SM BR OVC020
  FM200000 18006KT 6SM BR OVC050
  FM200500 20006KT P6SM BKN150 WS020/23035KT


KCLE 182104Z 1821/1924 18010KT P6SM SCT035 BKN250
  FM190800 16011KT P6SM SCT250 WS020/18045KT
  FM191200 18013KT P6SM -RA OVC015 WS020/20040KT
  FM191700 19012G20KT 3SM -RA BR OVC003
  FM192100 20015G25KT 6SM -RA OVC006


KCLT 182324Z 1900/2006 13008KT P6SM FEW060 BKN250
  FM190100 10004KT P6SM BKN045
  FM190500 07004KT 6SM -RA SCT007 OVC015
  FM191000 05004KT 5SM BR VCSH SCT004 OVC007
  PROB30 1910/1916 2SM -RA BR OVC004
  FM191800 VRB03KT 5SM BR VCSH OVC005
  FM192200 VRB03KT 4SM BR BKN009


KCVG 182331Z 1900/2006 15009KT P6SM OVC250
  FM190600 17010KT P6SM BKN100 WS020/20045KT
  FM190900 19008KT P6SM VCSH OVC022 WS020/22045KT
  FM191100 19011KT 4SM -SHRA BR OVC012
  FM191700 20012G20KT P6SM SCT012 BKN250
  FM192300 18010KT P6SM BKN250


KDCA 182327Z 1900/2006 11004KT P6SM FEW250
  FM191100 17005KT P6SM BKN140
  FM191700 18007KT 5SM BR BKN010
  FM192000 19007KT P6SM OVC035
  FM200500 20007KT P6SM BKN250 WS020/23035KT


KDEN 182337Z 1900/2006 29012G18KT P6SM FEW100 FEW150 FEW220
  FM190100 22013KT P6SM FEW130 SCT220
  FM190700 05015KT P6SM FEW020 SCT050 BKN140
  FM191100 08014KT 3SM BR BKN006 OVC015
  TEMPO 1911/1915 1SM -FZDZ BR OVC008
  FM191500 08012KT 2SM -FZDZ BR OVC005
  FM192000 07013KT 2SM -SN BR OVC004
  FM200100 05016KT 1SM -SN BR OVC003


KDFW 182338Z 1900/2006 17012KT P6SM SCT007 OVC010
  TEMPO 1900/1904 6SM BR BKN006
  FM190400 17013G23KT P6SM SCT012 BKN020
  FM191000 18018KT 6SM BR VCSH OVC008
  FM191500 19016KT P6SM VCSH BKN013
  FM191800 18018KT P6SM VCSH BKN022


KDTW 182330Z 1900/2006 14005KT P6SM SCT250
  FM190400 14005KT P6SM BKN250 WS020/23040KT
  FM190900 16004KT P6SM SCT025 BKN060 OVC100 WS020/23040KT
  FM191200 16004KT 4SM -SHRA BR SCT007 OVC015
  FM191400 17005KT 2SM -SHRA BR OVC006
  FM191600 17005KT 3/4SM -SHRA BR OVC004
  FM200000 21010KT 2SM -SHRA BR OVC006


KEWR 182329Z 1900/2006 34005KT P6SM BKN250
  FM190200 VRB03KT P6SM SCT250
  FM191200 15006KT P6SM BKN250
  FM191600 19008KT P6SM SCT090 BKN250
  FM192000 19006KT P6SM SCT030 BKN050
  FM192300 20005KT 5SM -SHRA BR BKN025 OVC050
  FM200400 21006KT 5SM BR BKN030


KFLL 181720Z 1818/1924 10012KT P6SM FEW025 SCT040 BKN060
  FM190000 09010KT P6SM SCT030 SCT050
  FM191400 09017G28KT P6SM SCT035 BKN060


KIAD 182327Z 1900/2006 12004KT P6SM FEW250
  FM191100 17006KT P6SM BKN060
  FM191500 18008KT 4SM BR OVC025
  FM191800 18010KT P6SM BKN010
  FM192000 18009KT P6SM BKN035


KIAH 182323Z 1900/2006 13011KT P6SM SCT025 BKN250
  FM190300 15010KT P6SM SCT015 BKN025
  FM191600 16013G23KT P6SM SCT025 BKN035
  FM191800 16013G23KT P6SM SCT035 SCT060
  FM200000 15014KT P6SM BKN015 BKN250


KJFK 182329Z 1900/2006 31007KT P6SM BKN250
  FM190200 VRB04KT P6SM SCT250
  FM190900 15008KT P6SM BKN250
  FM191500 18010KT P6SM SCT100 BKN250
  FM192000 18011KT P6SM SCT025 BKN050
  FM192300 19008KT 5SM -SHRA BR BKN020 OVC040
  FM200400 21008KT 5SM BR BKN015


KLAS 182320Z 1900/2006 20020G30KT P6SM SCT200
  FM190600 22030G40KT P6SM SCT050
  FM191100 22030G40KT P6SM BKN050
  FM191600 25018G28KT P6SM BKN120
  FM200400 29011KT P6SM SCT120


KLAX 182101Z 1821/1924 26013KT P6SM FEW018 SCT230
  FM190300 25008KT P6SM VCSH OVC012
  FM190900 30014KT P6SM VCSH BKN020
  FM191600 31012KT P6SM SCT025
  FM192000 31020G30KT P6SM SCT025


KLGA 182329Z 1900/2006 31007KT P6SM BKN250
  FM190300 VRB04KT P6SM SCT250
  FM190900 15006KT P6SM BKN250
  FM191500 17009KT P6SM SCT120 BKN250
  FM192000 17009KT P6SM FEW025 BKN050
  FM192300 18007KT 6SM -SHRA BR BKN020 OVC040
  FM200500 20006KT 5SM BR BKN020


KMCO 182324Z 1900/2006 08006KT P6SM SKC
  FM190600 VRB03KT P6SM FEW020
  TEMPO 1910/1912 5SM BR
  FM191500 11010KT P6SM SCT035
  FM200000 09007KT P6SM FEW050


KMDW 182333Z 1900/2006 17015G22KT P6SM BKN250 WS020/20045KT
  FM190600 18012KT P6SM SCT020 BKN040
  FM190900 19008KT 3SM BR SCT008 OVC012
  TEMPO 1910/1913 1SM BR SCT004 OVC008
  FM191300 15006KT 1SM -SHRA BR OVC004
  TEMPO 1913/1917 1/2SM -DZ FG OVC002
  FM192000 20014G21KT 1 1/2SM -RA BR OVC004
  FM200000 19012G18KT 2SM -SHRA BR OVC006


KMEM 182059Z 1821/1924 17009KT P6SM VCSH BKN022 OVC050
  TEMPO 1821/1822 SCT025 BKN060
  FM190400 17010KT 6SM -DZ BR OVC007
  FM191000 18013G19KT P6SM BKN012 OVC250
  FM191800 19015G23KT P6SM SCT020 BKN035


KMIA 181720Z 1818/1924 11012KT P6SM SCT030 BKN060
  FM190000 09008KT P6SM FEW030 SCT060
  FM191500 10015G25KT P6SM SCT035 BKN060


KMSP 182337Z 1900/2006 20012KT P6SM BKN100
  FM190200 28010KT P6SM OVC050
  FM190600 34010KT P6SM OVC015
  FM191200 01016KT P6SM VCSH OVC015
  PROB30 1912/1915 3SM -SN BR
  FM191500 02015G23KT 2SM -SN BR OVC015
  FM200000 03013KT 4SM -SN OVC012


KORD 182333Z 1900/2006 17015G22KT P6SM BKN250 WS020/20045KT
  FM190600 18012KT P6SM SCT020 BKN040
  FM190900 19008KT 3SM BR SCT008 OVC012
  TEMPO 1910/1913 1SM BR SCT004 OVC008
  FM191300 15006KT 1SM -SHRA BR OVC004
  TEMPO 1913/1917 1/2SM -DZ FG OVC002
  FM192000 20014G21KT 1 1/2SM -RA BR OVC004
  FM200000 19012G18KT 2SM -SHRA BR OVC006


KPDX 182330Z 1900/1924 25010KT P6SM -SHRASN SCT015 BKN040 BKN070
  FM190300 30008KT P6SM VCSH SCT020 BKN040 BKN080
  FM190700 06007KT P6SM SCT050
  FM191500 07005KT P6SM SKC


KPHL 182225Z 1822/1924 31008KT P6SM BKN250
  FM190200 27005KT P6SM SKC
  FM191800 18006KT 6SM -SHRA OVC020
  FM192100 20007KT 3SM -SHRA OVC009


KPHX 182336Z 1900/2006 19007KT P6SM SCT080 BKN250
  FM190900 14006KT P6SM SCT060
  FM191500 25012G24KT P6SM SCT050 BKN070
  FM200300 28010KT P6SM SCT070


KPIT 182325Z 1900/2006 20006KT P6SM SCT250
  FM190600 15007KT P6SM BKN250 WS020/19035KT
  FM191300 17009KT 5SM -RA BR OVC020 WS020/21035KT
  FM191900 20010KT P6SM VCSH OVC012 WS020/21035KT
  FM192200 19009KT P6SM BKN060 WS020/22040KT


KSAN 182339Z 1900/2006 25010KT P6SM SCT060
  FM190300 23007KT P6SM BKN025
  FM190700 25010KT 6SM -SHRA BKN020 OVC035
  FM191000 25015G25KT P6SM VCSH BKN025 BKN035
  FM191600 29022G32KT P6SM BKN035
  FM200100 29010KT P6SM SCT035


KSEA 182320Z 1900/2006 34025G35KT P6SM SCT025
  FM190300 36017G27KT P6SM SKC
  FM190700 04012G20KT P6SM SKC
  FM191200 04006KT P6SM SKC


KSFO 182328Z 1900/2006 29025G36KT P6SM SCT040
  FM190400 28017G26KT P6SM SCT040
  FM191000 30015KT P6SM VCSH OVC040
  FM191500 32017KT P6SM SCT030
  FM192000 29020G27KT P6SM SKC
  FM200400 29012KT P6SM SKC


KSLC 182249Z 1823/1924 33012G20KT P6SM -SHRA BKN025 BKN040
  FM190000 32014G20KT 3/4SM -SN BR BKN006 OVC020
  FM190300 33011KT 2SM -SHSN BR SCT006 BKN020
  FM191200 34008KT P6SM VCSH SCT020 BKN035


KSTL 182339Z 1900/2006 15016G21KT P6SM BKN200
  FM190300 17013KT P6SM BKN070 WS017/18045KT
  FM190700 18013KT P6SM -SHRA VCTS OVC025CB WS017/21045KT
  FM191500 19016KT P6SM -SHRA VCTS OVC025CB
  FM191800 19018KT P6SM -SHRA OVC035
  FM192300 18015KT P6SM -SHRA OVC025


KTPA 182337Z 1900/2006 29009KT P6SM FEW050
  FM190400 VRB03KT P6SM FEW010
  FM191500 11008KT P6SM FEW030 FEW250